createdAt,value
2019-01-18T00:01:00.267Z,99916.05
2019-01-18T00:02:04.249Z,99907.09
2019-01-18T00:03:08.224Z,99917.39
2019-01-18T00:04:12.448Z,99915.63
2019-01-18T00:05:16.544Z,99916.09
2019-01-18T00:06:20.781Z,99915.16
2019-01-18T00:07:25.005Z,99916.59
2019-01-18T00:08:28.833Z,99914.70
2019-01-18T00:09:33.038Z,99917.81
2019-01-18T00:10:37.036Z,99920.45
2019-01-18T00:11:40.952Z,99914.19
2019-01-18T00:12:44.798Z,99919.52
2019-01-18T00:13:48.799Z,99920.09
2019-01-18T00:14:52.924Z,99916.92
2019-01-18T00:15:56.854Z,99918.27
2019-01-18T00:17:00.767Z,99912.42
2019-01-18T00:18:04.882Z,99914.19
2019-01-18T00:19:08.872Z,99913.67
2019-01-18T00:20:13.240Z,99921.75
2019-01-18T00:21:17.569Z,99929.31
2019-01-18T00:22:21.721Z,99927.47
2019-01-18T00:23:25.633Z,99927.08
2019-01-18T00:24:29.720Z,99932.00
2019-01-18T00:25:33.766Z,99932.05
2019-01-18T00:26:37.860Z,99943.28
2019-01-18T00:27:42.137Z,99937.91
2019-01-18T00:28:46.391Z,99934.33
2019-01-18T00:29:50.371Z,99938.37
2019-01-18T00:30:54.499Z,99930.24
2019-01-18T00:31:58.962Z,99934.70
2019-01-18T00:33:02.817Z,99938.32
2019-01-18T00:34:06.810Z,99950.86
2019-01-18T00:35:11.002Z,99957.09
2019-01-18T00:36:15.005Z,99956.23
2019-01-18T00:37:19.633Z,99957.97
2019-01-18T00:38:23.613Z,99962.47
2019-01-18T00:39:27.895Z,99965.12
2019-01-18T00:40:32.244Z,99966.05
2019-01-18T00:41:36.428Z,99972.27
2019-01-18T00:42:40.340Z,99967.39
2019-01-18T00:43:44.860Z,99977.36
2019-01-18T00:44:49.796Z,99976.91
2019-01-18T00:45:53.770Z,99974.12
2019-01-18T00:46:58.059Z,99969.63
2019-01-18T00:48:02.201Z,99965.53
2019-01-18T00:49:06.457Z,99961.26
2019-01-18T00:50:12.573Z,99968.97
2019-01-18T00:51:16.487Z,99975.70
2019-01-18T00:52:20.489Z,99975.94
2019-01-18T00:53:24.477Z,99972.95
2019-01-18T00:54:28.795Z,99977.23
2019-01-18T00:55:32.713Z,99973.80
2019-01-18T00:56:36.807Z,99977.50
2019-01-18T00:57:40.794Z,99975.27
2019-01-18T00:58:44.708Z,99975.32
2019-01-18T00:59:48.925Z,99976.62
2019-01-18T01:00:53.234Z,99978.90
2019-01-18T01:01:57.525Z,99978.06
2019-01-18T01:03:02.205Z,99987.91
2019-01-18T01:04:06.460Z,99980.29
2019-01-18T01:05:10.682Z,99989.66
2019-01-18T01:06:14.825Z,99999.97
2019-01-18T01:07:18.984Z,99993.19
2019-01-18T01:08:22.989Z,100000.38
2019-01-18T01:09:26.895Z,99997.70
2019-01-18T01:10:30.870Z,100000.80
2019-01-18T01:11:34.855Z,100002.61
2019-01-18T01:12:38.957Z,100006.19
2019-01-18T01:13:43.120Z,100007.12
2019-01-18T01:14:47.360Z,100006.19
2019-01-18T01:15:51.344Z,100003.96
2019-01-18T01:16:57.687Z,100001.27
2019-01-18T01:18:02.005Z,100010.09
2019-01-18T01:19:05.998Z,100005.59
2019-01-18T01:20:11.360Z,100002.39
2019-01-18T01:21:15.358Z,100004.16
2019-01-18T01:22:19.223Z,100005.03
2019-01-18T01:23:23.214Z,100010.84
2019-01-18T01:24:27.211Z,100009.95
2019-01-18T01:25:31.276Z,100018.50
2019-01-18T01:26:35.361Z,100022.95
2019-01-18T01:27:39.683Z,100021.66
2019-01-18T01:28:43.594Z,100026.16
2019-01-18T01:29:47.866Z,100023.00
2019-01-18T01:30:51.869Z,100031.96
2019-01-18T01:31:55.808Z,100032.84
2019-01-18T01:33:02.151Z,100035.07
2019-01-18T01:34:05.491Z,100029.61
2019-01-18T01:35:09.738Z,100040.84
2019-01-18T01:36:13.779Z,100040.37
2019-01-18T01:37:17.733Z,100043.07
2019-01-18T01:38:21.724Z,100042.19
2019-01-18T01:39:25.713Z,100045.72
2019-01-18T01:40:29.943Z,100047.11
2019-01-18T01:41:33.818Z,100048.88
2019-01-18T01:42:37.795Z,100050.22
2019-01-18T01:43:42.045Z,100052.45
2019-01-18T01:44:46.110Z,100048.45
2019-01-18T01:45:50.385Z,100055.66
2019-01-18T01:46:54.842Z,100059.69
2019-01-18T01:47:58.776Z,100061.45
2019-01-18T01:49:03.183Z,100057.46
2019-01-18T01:50:09.677Z,100056.66
2019-01-18T01:51:13.667Z,100068.31
2019-01-18T01:52:17.642Z,100059.81
2019-01-18T01:53:21.823Z,100065.62
2019-01-18T01:54:25.802Z,100070.13
2019-01-18T01:55:29.710Z,100072.81
2019-01-18T01:56:33.866Z,100073.70
2019-01-18T01:57:38.016Z,100080.01
2019-01-18T01:58:41.863Z,100077.27
2019-01-18T01:59:49.771Z,100085.27
2019-01-18T02:00:51.617Z,100079.97
2019-01-18T02:01:55.839Z,100086.23
2019-01-18T02:03:00.009Z,100090.78
2019-01-18T02:04:04.042Z,100088.55
2019-01-18T02:05:08.117Z,100094.82
2019-01-18T02:06:12.288Z,100094.82
2019-01-18T02:07:16.278Z,100091.25
2019-01-18T02:08:20.450Z,100095.24
2019-01-18T02:09:24.357Z,100095.58
2019-01-18T02:10:28.341Z,100097.39
2019-01-18T02:11:32.510Z,100097.00
2019-01-18T02:12:36.489Z,100096.59
2019-01-18T02:13:40.408Z,100097.98
2019-01-18T02:14:44.243Z,100093.52
2019-01-18T02:15:48.468Z,100093.98
2019-01-18T02:16:52.652Z,100094.91
2019-01-18T02:17:57.135Z,100096.26
2019-01-18T02:19:01.382Z,100086.41
2019-01-18T02:20:06.273Z,100091.34
2019-01-18T02:21:10.510Z,100089.57
2019-01-18T02:22:14.443Z,100090.92
2019-01-18T02:23:18.430Z,100091.38
2019-01-18T02:24:22.675Z,100088.77
2019-01-18T02:25:26.576Z,100086.12
2019-01-18T02:26:30.743Z,100091.09
2019-01-18T02:27:34.998Z,100093.36
2019-01-18T02:28:38.918Z,100092.52
2019-01-18T02:29:42.838Z,100097.56
2019-01-18T02:30:46.830Z,100099.47
2019-01-18T02:31:51.059Z,100098.16
2019-01-18T02:32:55.047Z,100107.24
2019-01-18T02:33:59.216Z,100108.67
2019-01-18T02:35:03.757Z,100112.71
2019-01-18T02:36:07.746Z,100106.20
2019-01-18T02:37:11.658Z,100112.13
2019-01-18T02:38:15.823Z,100110.02
2019-01-18T02:39:19.743Z,100114.05
2019-01-18T02:40:23.737Z,100114.59
2019-01-18T02:41:27.714Z,100123.13
2019-01-18T02:42:31.791Z,100114.64
2019-01-18T02:43:35.627Z,100119.60
2019-01-18T02:44:39.869Z,100124.02
2019-01-18T02:45:43.852Z,100124.02
2019-01-18T02:46:47.689Z,100128.05
2019-01-18T02:47:51.668Z,100124.44
2019-01-18T02:48:55.578Z,100130.20
2019-01-18T02:49:59.430Z,100134.63
2019-01-18T02:51:03.413Z,100135.58
2019-01-18T02:52:07.312Z,100141.42
2019-01-18T02:53:11.293Z,100142.31
2019-01-18T02:54:15.205Z,100141.81
2019-01-18T02:55:19.312Z,100139.08
2019-01-18T02:56:23.642Z,100140.80
2019-01-18T02:57:27.880Z,100153.38
2019-01-18T02:58:31.785Z,100141.69
2019-01-18T02:59:35.957Z,100139.41
2019-01-18T03:00:39.942Z,100140.72
2019-01-18T03:01:44.090Z,100138.48
2019-01-18T03:02:48.073Z,100142.45
2019-01-18T03:03:52.057Z,100136.72
2019-01-18T03:04:55.975Z,100139.83
2019-01-18T03:05:59.890Z,100137.65
2019-01-18T03:07:03.873Z,100138.99
2019-01-18T03:08:08.032Z,100139.45
2019-01-18T03:09:12.261Z,100136.30
2019-01-18T03:10:19.416Z,100145.72
2019-01-18T03:11:23.264Z,100144.84
2019-01-18T03:12:27.253Z,100145.30
2019-01-18T03:13:31.415Z,100148.50
2019-01-18T03:14:35.330Z,100148.08
2019-01-18T03:15:39.333Z,100153.58
2019-01-18T03:16:43.326Z,100152.73
2019-01-18T03:17:47.236Z,100151.89
2019-01-18T03:18:51.621Z,100151.12
2019-01-18T03:19:55.662Z,100152.55
2019-01-18T03:20:59.580Z,100156.63
2019-01-18T03:22:03.827Z,100162.94
2019-01-18T03:23:08.238Z,100165.70
2019-01-18T03:24:12.467Z,100161.70
2019-01-18T03:25:21.897Z,100167.13
2019-01-18T03:26:25.934Z,100170.70
2019-01-18T03:27:30.182Z,100173.89
2019-01-18T03:28:34.461Z,100170.28
2019-01-18T03:29:38.438Z,100175.23
2019-01-18T03:30:42.375Z,100173.47
2019-01-18T03:31:46.547Z,100177.50
2019-01-18T03:32:50.462Z,100183.81
2019-01-18T03:33:54.594Z,100187.03
2019-01-18T03:34:59.110Z,100179.00
2019-01-18T03:36:03.314Z,100183.81
2019-01-18T03:37:07.306Z,100184.80
2019-01-18T03:38:11.607Z,100188.88
2019-01-18T03:39:15.445Z,100191.06
2019-01-18T03:40:20.161Z,100196.45
2019-01-18T03:41:24.202Z,100200.06
2019-01-18T03:42:28.162Z,100201.86
2019-01-18T03:43:32.194Z,100205.94
2019-01-18T03:44:36.115Z,100206.78
2019-01-18T03:45:40.222Z,100203.21
2019-01-18T03:46:44.057Z,100206.75
2019-01-18T03:47:48.450Z,100206.67
2019-01-18T03:48:52.758Z,100204.83
2019-01-18T03:49:56.676Z,100206.59
2019-01-18T03:51:00.842Z,100208.78
2019-01-18T03:52:04.828Z,100208.36
2019-01-18T03:53:09.071Z,100215.97
2019-01-18T03:54:13.046Z,100213.74
2019-01-18T03:55:17.389Z,100218.70
2019-01-18T03:56:21.552Z,100212.52
2019-01-18T03:57:25.465Z,100218.39
2019-01-18T03:58:29.372Z,100218.89
2019-01-18T03:59:33.353Z,100161.86
2019-01-18T04:00:37.504Z,100218.92
2019-01-18T04:01:41.353Z,100215.54
2019-01-18T04:02:45.339Z,100215.23
2019-01-18T04:03:49.176Z,100218.48
2019-01-18T04:04:53.051Z,100224.41
2019-01-18T04:05:57.231Z,100220.52
2019-01-18T04:07:01.393Z,100218.01
2019-01-18T04:08:05.374Z,100223.53
2019-01-18T04:09:09.357Z,100225.47
2019-01-18T04:10:15.132Z,100225.09
2019-01-18T04:11:19.130Z,100217.59
2019-01-18T04:12:23.035Z,100223.03
2019-01-18T04:13:27.024Z,100224.41
2019-01-18T04:14:30.934Z,100228.41
2019-01-18T04:15:35.269Z,100229.30
2019-01-18T04:16:39.386Z,100228.87
2019-01-18T04:17:43.621Z,100233.46
2019-01-18T04:18:47.781Z,100235.72
2019-01-18T04:19:51.854Z,100237.49
2019-01-18T04:20:55.685Z,100234.28
2019-01-18T04:21:59.692Z,100243.16
2019-01-18T04:23:03.711Z,100236.36
2019-01-18T04:24:08.167Z,100241.18
2019-01-18T04:25:15.499Z,100238.88
2019-01-18T04:26:19.701Z,100235.62
2019-01-18T04:27:23.962Z,100236.94
2019-01-18T04:28:27.811Z,100236.44
2019-01-18T04:29:31.980Z,100244.47
2019-01-18T04:30:35.817Z,100242.20
2019-01-18T04:31:40.219Z,100237.25
2019-01-18T04:32:44.270Z,100242.56
2019-01-18T04:33:48.564Z,100237.14
2019-01-18T04:34:52.885Z,100237.56
2019-01-18T04:35:56.797Z,100241.53
2019-01-18T04:37:00.642Z,100241.53
2019-01-18T04:38:04.993Z,100239.66
2019-01-18T04:39:08.992Z,100247.27
2019-01-18T04:40:15.577Z,100251.72
2019-01-18T04:41:19.543Z,100257.06
2019-01-18T04:42:23.865Z,100257.06
2019-01-18T04:43:28.063Z,100259.29
2019-01-18T04:44:31.994Z,100258.83
2019-01-18T04:45:35.951Z,100264.63
2019-01-18T04:46:39.804Z,100265.52
2019-01-18T04:47:43.834Z,100241.28
2019-01-18T04:48:48.192Z,100269.52
2019-01-18T04:49:52.108Z,100273.55
2019-01-18T04:50:56.097Z,100269.02
2019-01-18T04:52:00.098Z,100277.09
2019-01-18T04:53:07.143Z,100275.81
2019-01-18T04:54:10.979Z,100286.50
2019-01-18T04:55:15.731Z,100279.78
2019-01-18T04:56:19.970Z,100282.00
2019-01-18T04:57:24.177Z,100284.23
2019-01-18T04:58:28.185Z,100282.43
2019-01-18T04:59:32.107Z,100282.89
2019-01-18T05:00:40.526Z,100291.34
2019-01-18T05:01:41.766Z,100292.23
2019-01-18T05:02:45.842Z,100299.80
2019-01-18T05:03:49.693Z,100298.88
2019-01-18T05:04:53.571Z,100301.11
2019-01-18T05:05:57.507Z,100310.92
2019-01-18T05:07:01.506Z,100306.42
2019-01-18T05:08:05.822Z,100314.45
2019-01-18T05:09:09.739Z,100311.34
2019-01-18T05:10:14.862Z,100318.92
2019-01-18T05:11:18.849Z,100318.45
2019-01-18T05:12:23.219Z,100323.34
2019-01-18T05:13:27.166Z,100323.34
2019-01-18T05:14:31.085Z,100322.45
2019-01-18T05:15:35.081Z,100328.75
2019-01-18T05:16:38.993Z,100334.14
2019-01-18T05:17:43.050Z,100324.30
2019-01-18T05:18:46.904Z,100323.88
2019-01-18T05:19:50.745Z,100330.59
2019-01-18T05:20:55.073Z,100332.44
2019-01-18T05:21:59.429Z,100331.16
2019-01-18T05:23:03.684Z,100334.31
2019-01-18T05:24:07.682Z,100331.23
2019-01-18T05:25:12.177Z,100326.84
2019-01-18T05:26:16.009Z,100326.06
2019-01-18T05:27:20.162Z,100327.05
2019-01-18T05:28:24.075Z,100329.91
2019-01-18T05:29:28.316Z,100332.27
2019-01-18T05:30:32.306Z,100331.03
2019-01-18T05:31:36.283Z,100331.66
2019-01-18T05:32:40.442Z,100329.56
2019-01-18T05:33:44.425Z,100331.46
2019-01-18T05:34:48.350Z,100331.63
2019-01-18T05:35:52.836Z,100330.88
2019-01-18T05:36:56.759Z,100339.45
2019-01-18T05:38:00.691Z,100338.66
2019-01-18T05:39:06.096Z,100338.79
2019-01-18T05:40:12.314Z,100341.63
2019-01-18T05:41:16.793Z,100344.44
2019-01-18T05:42:20.943Z,100348.08
2019-01-18T05:43:25.199Z,100353.50
2019-01-18T05:44:29.057Z,100359.00
2019-01-18T05:45:33.220Z,100351.42
2019-01-18T05:46:37.053Z,100358.69
2019-01-18T05:47:41.045Z,100356.52
2019-01-18T05:48:45.029Z,100359.23
2019-01-18T05:49:48.951Z,100355.77
2019-01-18T05:50:53.294Z,100357.69
2019-01-18T05:51:57.278Z,100363.43
2019-01-18T05:53:04.800Z,100360.92
2019-01-18T05:54:08.921Z,100365.03
2019-01-18T05:55:13.041Z,100370.00
2019-01-18T05:56:17.040Z,100369.14
2019-01-18T05:57:21.236Z,100370.02
2019-01-18T05:58:25.298Z,100372.68
2019-01-18T05:59:29.294Z,100369.09
2019-01-18T06:01:03.553Z,100376.28
2019-01-18T06:02:07.877Z,100375.82
2019-01-18T06:03:12.166Z,100375.87
2019-01-18T06:04:16.260Z,100378.62
2019-01-18T06:05:20.619Z,100382.64
2019-01-18T06:06:24.551Z,100377.81
2019-01-18T06:07:28.600Z,100380.50
2019-01-18T06:08:32.602Z,100385.41
2019-01-18T06:09:37.191Z,100382.75
2019-01-18T06:10:41.509Z,100381.86
2019-01-18T06:11:45.423Z,100385.44
2019-01-18T06:12:49.313Z,100387.20
2019-01-18T06:13:53.610Z,100387.69
2019-01-18T06:14:58.302Z,100389.03
2019-01-18T06:16:03.006Z,100394.03
2019-01-18T06:17:07.351Z,100397.16
2019-01-18T06:18:11.412Z,100397.19
2019-01-18T06:19:15.658Z,100400.33
2019-01-18T06:20:19.971Z,100396.77
2019-01-18T06:21:23.843Z,100401.22
2019-01-18T06:22:27.762Z,100401.64
2019-01-18T06:23:32.278Z,100404.36
2019-01-18T06:24:36.479Z,100406.13
2019-01-18T06:25:40.799Z,100406.61
2019-01-18T06:26:45.168Z,100416.00
2019-01-18T06:27:49.431Z,100409.75
2019-01-18T06:28:53.325Z,100407.95
2019-01-18T06:29:57.174Z,100416.45
2019-01-18T06:31:01.839Z,100416.48
2019-01-18T06:32:06.034Z,100414.74
2019-01-18T06:33:10.280Z,100416.44
2019-01-18T06:34:14.275Z,100419.55
2019-01-18T06:35:18.474Z,100418.63
2019-01-18T06:36:22.406Z,100426.20
2019-01-18T06:37:26.325Z,100419.89
2019-01-18T06:38:30.545Z,100422.09
2019-01-18T06:39:34.533Z,100428.76
2019-01-18T06:40:38.511Z,100429.13
2019-01-18T06:41:47.269Z,100433.13
2019-01-18T06:42:51.598Z,100439.36
2019-01-18T06:43:55.509Z,100439.34
2019-01-18T06:44:59.428Z,100442.83
2019-01-18T06:46:03.416Z,100444.12
2019-01-18T06:47:07.912Z,100447.64
2019-01-18T06:48:13.783Z,100452.55
2019-01-18T06:49:19.179Z,100456.97
2019-01-18T06:50:23.362Z,100450.69
2019-01-18T06:51:27.276Z,100457.84
2019-01-18T06:52:31.284Z,100461.38
2019-01-18T06:53:35.198Z,100458.24
2019-01-18T06:54:39.039Z,100456.88
2019-01-18T06:55:42.995Z,100463.07
2019-01-18T06:56:47.197Z,100465.76
2019-01-18T06:57:51.686Z,100467.98
2019-01-18T06:58:55.598Z,100468.90
2019-01-18T06:59:59.502Z,100464.41
2019-01-18T07:01:08.478Z,100465.76
2019-01-18T07:02:09.678Z,100467.10
2019-01-18T07:03:13.679Z,100470.73
2019-01-18T07:04:17.920Z,100475.61
2019-01-18T07:05:22.151Z,100478.30
2019-01-18T07:06:26.065Z,100479.19
2019-01-18T07:07:29.922Z,100481.87
2019-01-18T07:08:34.080Z,100484.98
2019-01-18T07:09:37.928Z,100487.19
2019-01-18T07:10:41.934Z,100483.59
2019-01-18T07:11:46.166Z,100492.05
2019-01-18T07:12:50.170Z,100490.20
2019-01-18T07:13:54.079Z,100491.52
2019-01-18T07:14:58.007Z,100491.52
2019-01-18T07:16:01.994Z,100492.40
2019-01-18T07:17:06.146Z,100497.36
2019-01-18T07:18:10.072Z,100497.45
2019-01-18T07:19:13.908Z,100490.78
2019-01-18T07:20:18.627Z,100500.67
2019-01-18T07:21:22.581Z,100497.98
2019-01-18T07:22:26.507Z,100502.07
2019-01-18T07:23:30.433Z,100499.45
2019-01-18T07:24:34.423Z,100500.45
2019-01-18T07:25:38.340Z,100508.51
2019-01-18T07:26:42.322Z,100500.50
2019-01-18T07:27:46.234Z,100505.00
2019-01-18T07:28:50.089Z,100509.56
2019-01-18T07:29:53.927Z,100510.48
2019-01-18T07:30:58.158Z,100510.94
2019-01-18T07:32:02.391Z,100513.19
2019-01-18T07:33:10.953Z,100518.98
2019-01-18T07:34:14.934Z,100517.67
2019-01-18T07:35:18.930Z,100514.09
2019-01-18T07:36:22.843Z,100516.86
2019-01-18T07:37:26.755Z,100516.00
2019-01-18T07:38:30.702Z,100521.39
2019-01-18T07:39:34.608Z,100527.22
2019-01-18T07:40:38.599Z,100527.22
2019-01-18T07:41:43.010Z,100527.64
2019-01-18T07:42:46.991Z,100527.64
2019-01-18T07:43:51.090Z,100531.69
2019-01-18T07:44:55.150Z,100531.23
2019-01-18T07:45:59.144Z,100534.35
2019-01-18T07:47:03.399Z,100535.70
2019-01-18T07:48:07.410Z,100532.56
2019-01-18T07:49:11.442Z,100538.80
2019-01-18T07:50:19.958Z,100536.05
2019-01-18T07:51:21.431Z,100540.95
2019-01-18T07:52:25.750Z,100539.13
2019-01-18T07:53:30.015Z,100546.27
2019-01-18T07:54:34.022Z,100544.02
2019-01-18T07:55:38.056Z,100547.13
2019-01-18T07:56:41.985Z,100549.77
2019-01-18T07:57:45.980Z,100545.73
2019-01-18T07:58:49.899Z,100553.33
2019-01-18T07:59:54.166Z,100551.55
2019-01-18T08:00:58.475Z,100551.55
2019-01-18T08:02:02.504Z,100548.95
2019-01-18T08:03:06.570Z,100558.80
2019-01-18T08:04:10.629Z,100560.19
2019-01-18T08:05:14.993Z,100553.09
2019-01-18T08:06:18.999Z,100558.08
2019-01-18T08:07:23.298Z,100557.22
2019-01-18T08:08:27.300Z,100559.98
2019-01-18T08:09:31.160Z,100560.45
2019-01-18T08:10:35.425Z,100569.00
2019-01-18T08:11:39.424Z,100568.11
2019-01-18T08:12:43.604Z,100569.98
2019-01-18T08:13:47.601Z,100572.69
2019-01-18T08:14:51.616Z,100571.36
2019-01-18T08:15:56.080Z,100569.13
2019-01-18T08:17:00.360Z,100570.98
2019-01-18T08:18:04.594Z,100579.03
2019-01-18T08:19:08.923Z,100580.38
2019-01-18T08:20:14.895Z,100582.63
2019-01-18T08:21:18.893Z,100581.73
2019-01-18T08:22:22.826Z,100584.80
2019-01-18T08:23:26.824Z,100583.89
2019-01-18T08:24:30.670Z,100589.69
2019-01-18T08:25:34.714Z,100595.05
2019-01-18T08:26:39.004Z,100591.91
2019-01-18T08:27:43.098Z,100592.77
2019-01-18T08:28:48.552Z,100589.64
2019-01-18T08:29:52.737Z,100594.11
2019-01-18T08:30:56.802Z,100595.02
2019-01-18T08:32:01.058Z,100591.87
2019-01-18T08:33:05.052Z,100597.23
2019-01-18T08:34:08.978Z,100601.30
2019-01-18T08:35:14.626Z,100599.06
2019-01-18T08:36:18.623Z,100598.65
2019-01-18T08:37:22.787Z,100592.45
2019-01-18T08:38:26.861Z,100593.80
2019-01-18T08:39:30.783Z,100600.52
2019-01-18T08:40:42.722Z,100599.61
2019-01-18T08:41:46.643Z,100596.93
2019-01-18T08:42:50.646Z,100604.09
2019-01-18T08:43:54.563Z,100597.84
2019-01-18T08:44:58.746Z,100600.52
2019-01-18T08:46:05.869Z,100600.50
2019-01-18T08:47:09.933Z,100602.70
2019-01-18T08:48:13.923Z,100599.56
2019-01-18T08:49:18.146Z,100602.24
2019-01-18T08:50:22.187Z,100601.79
2019-01-18T08:51:26.245Z,100603.59
2019-01-18T08:52:30.087Z,100608.93
2019-01-18T08:53:34.072Z,100607.14
2019-01-18T08:54:38.478Z,100604.00
2019-01-18T08:55:42.736Z,100611.59
2019-01-18T08:56:46.966Z,100611.58
2019-01-18T08:57:50.947Z,100618.27
2019-01-18T08:58:54.789Z,100621.38
2019-01-18T08:59:58.948Z,100619.53
2019-01-18T09:01:02.879Z,100617.29
2019-01-18T09:02:07.111Z,100623.52
2019-01-18T09:03:11.100Z,100621.70
2019-01-18T09:04:15.336Z,100624.83
2019-01-18T09:05:21.172Z,100626.11
2019-01-18T09:06:25.108Z,100623.39
2019-01-18T09:07:29.110Z,100632.31
2019-01-18T09:08:33.105Z,100630.89
2019-01-18T09:09:36.956Z,100631.78
2019-01-18T09:10:41.039Z,100633.97
2019-01-18T09:11:45.037Z,100625.92
2019-01-18T09:12:48.951Z,100629.49
2019-01-18T09:13:52.859Z,100636.19
2019-01-18T09:14:57.041Z,100634.79
2019-01-18T09:16:01.208Z,100637.45
2019-01-18T09:17:05.323Z,100640.11
2019-01-18T09:18:09.314Z,100640.08
2019-01-18T09:19:13.262Z,100637.34
2019-01-18T09:20:19.547Z,100643.55
2019-01-18T09:21:23.500Z,100650.22
2019-01-18T09:22:27.733Z,100652.83
2019-01-18T09:23:32.073Z,100647.85
2019-01-18T09:24:36.101Z,100647.77
2019-01-18T09:25:40.028Z,100646.75
2019-01-18T09:26:44.050Z,100649.80
2019-01-18T09:27:48.358Z,100640.71
2019-01-18T09:28:52.420Z,100645.95
2019-01-18T09:29:56.271Z,100653.00
2019-01-18T09:31:00.274Z,100656.48
2019-01-18T09:32:04.588Z,100653.73
2019-01-18T09:33:09.731Z,100652.32
2019-01-18T09:34:14.098Z,100654.88
2019-01-18T09:35:19.052Z,100652.05
2019-01-18T09:36:23.229Z,100657.33
2019-01-18T09:37:27.229Z,100658.97
2019-01-18T09:38:31.224Z,100656.65
2019-01-18T09:39:35.219Z,100658.78
2019-01-18T09:40:39.215Z,100660.01
2019-01-18T09:41:44.148Z,100665.70
2019-01-18T09:42:48.232Z,100662.48
2019-01-18T09:43:52.569Z,100665.51
2019-01-18T09:44:56.659Z,100666.80
2019-01-18T09:46:00.644Z,100668.48
2019-01-18T09:47:04.670Z,100666.20
2019-01-18T09:48:10.120Z,100663.91
2019-01-18T09:49:14.277Z,100662.47
2019-01-18T09:50:23.450Z,100668.71
2019-01-18T09:51:27.439Z,100670.43
2019-01-18T09:52:31.868Z,100671.71
2019-01-18T09:53:36.115Z,100672.11
2019-01-18T09:54:40.102Z,100677.89
2019-01-18T09:55:44.014Z,100680.03
2019-01-18T09:56:48.103Z,100677.72
2019-01-18T09:57:52.027Z,100682.09
2019-01-18T09:58:55.935Z,100680.69
2019-01-18T10:00:00.224Z,100675.23
2019-01-18T10:01:04.260Z,100679.19
2019-01-18T10:02:08.489Z,100684.05
2019-01-18T10:03:12.418Z,100682.15
2019-01-18T10:04:16.667Z,100689.70
2019-01-18T10:05:21.083Z,100681.97
2019-01-18T10:06:25.095Z,100684.63
2019-01-18T10:07:29.089Z,100680.09
2019-01-18T10:08:33.258Z,100676.91
2019-01-18T10:09:37.171Z,100677.34
2019-01-18T10:10:41.384Z,100678.13
2019-01-18T10:11:45.552Z,100672.71
2019-01-18T10:12:49.938Z,100674.48
2019-01-18T10:13:54.103Z,100674.39
2019-01-18T10:14:58.098Z,100682.41
2019-01-18T10:16:02.077Z,100680.53
2019-01-18T10:17:06.270Z,100675.08
2019-01-18T10:18:10.357Z,100684.02
2019-01-18T10:19:14.515Z,100684.02
2019-01-18T10:20:18.711Z,100681.28
2019-01-18T10:21:22.699Z,100683.52
2019-01-18T10:22:26.622Z,100684.87
2019-01-18T10:23:30.623Z,100681.25
2019-01-18T10:24:34.530Z,100683.03
2019-01-18T10:25:38.515Z,100682.17
2019-01-18T10:26:42.602Z,100683.95
2019-01-18T10:27:46.589Z,100680.83
2019-01-18T10:28:50.514Z,100683.95
2019-01-18T10:29:54.447Z,100689.34
2019-01-18T10:30:58.808Z,100683.95
2019-01-18T10:32:02.722Z,100681.75
2019-01-18T10:33:07.061Z,100683.06
2019-01-18T10:34:10.901Z,100656.06
2019-01-18T10:35:15.853Z,100687.14
2019-01-18T10:36:19.767Z,100685.36
2019-01-18T10:37:23.778Z,100684.02
2019-01-18T10:38:28.080Z,100679.97
2019-01-18T10:39:32.146Z,100684.41
2019-01-18T10:40:36.394Z,100687.50
2019-01-18T10:41:40.384Z,100693.70
2019-01-18T10:42:45.205Z,100682.44
2019-01-18T10:43:49.275Z,100691.80
2019-01-18T10:44:53.405Z,100687.69
2019-01-18T10:45:57.624Z,100691.70
2019-01-18T10:47:01.832Z,100691.73
2019-01-18T10:48:05.818Z,100689.04
2019-01-18T10:49:09.829Z,100685.42
2019-01-18T10:50:16.241Z,100689.47
2019-01-18T10:51:20.496Z,100685.39
2019-01-18T10:52:24.487Z,100689.89
2019-01-18T10:53:28.508Z,100688.55
2019-01-18T10:54:32.531Z,100688.52
2019-01-18T10:55:36.378Z,100687.59
2019-01-18T10:56:40.598Z,100691.14
2019-01-18T10:57:44.911Z,100690.61
2019-01-18T10:58:48.833Z,100687.42
2019-01-18T10:59:52.682Z,100687.88
2019-01-18T11:00:56.527Z,100687.84
2019-01-18T11:02:06.951Z,100689.20
2019-01-18T11:03:06.273Z,100687.81
2019-01-18T11:04:10.658Z,100677.92
2019-01-18T11:05:14.972Z,100681.93
2019-01-18T11:06:18.970Z,100683.17
2019-01-18T11:07:23.269Z,100688.50
2019-01-18T11:08:27.844Z,100687.15
2019-01-18T11:09:31.774Z,100682.19
2019-01-18T11:10:35.772Z,100683.50
2019-01-18T11:11:39.773Z,100686.58
2019-01-18T11:12:43.758Z,100682.05
2019-01-18T11:13:47.993Z,100678.43
2019-01-18T11:14:52.124Z,100678.36
2019-01-18T11:15:56.076Z,100677.89
2019-01-18T11:16:59.948Z,100678.28
2019-01-18T11:18:04.254Z,100651.30
2019-01-18T11:19:08.238Z,100681.48
2019-01-18T11:20:21.076Z,100672.97
2019-01-18T11:21:25.422Z,100676.66
2019-01-18T11:22:29.338Z,100669.17
2019-01-18T11:23:33.343Z,100669.73
2019-01-18T11:24:37.696Z,100670.76
2019-01-18T11:25:41.639Z,100676.64
2019-01-18T11:26:45.546Z,100677.14
2019-01-18T11:27:49.449Z,100676.25
2019-01-18T11:28:53.734Z,100680.69
2019-01-18T11:29:58.067Z,100672.11
2019-01-18T11:31:02.350Z,100672.03
2019-01-18T11:32:06.478Z,100670.52
2019-01-18T11:33:11.171Z,100668.53
2019-01-18T11:34:15.322Z,100674.13
2019-01-18T11:35:19.708Z,100663.09
2019-01-18T11:36:23.696Z,100663.41
2019-01-18T11:37:27.870Z,100664.65
2019-01-18T11:38:31.779Z,100663.69
2019-01-18T11:39:35.929Z,100665.39
2019-01-18T11:40:39.928Z,100665.78
2019-01-18T11:41:43.987Z,100663.89
2019-01-18T11:42:48.166Z,100661.13
2019-01-18T11:43:52.001Z,100660.97
2019-01-18T11:44:56.156Z,100656.58
2019-01-18T11:46:00.365Z,100658.88
2019-01-18T11:47:04.589Z,100650.41
2019-01-18T11:48:08.569Z,100652.22
2019-01-18T11:49:12.551Z,100649.12
2019-01-18T11:50:18.926Z,100642.84
2019-01-18T11:51:23.098Z,100646.01
2019-01-18T11:52:27.082Z,100644.66
2019-01-18T11:53:30.990Z,100653.22
2019-01-18T11:54:35.223Z,100645.59
2019-01-18T11:55:39.220Z,100651.41
2019-01-18T11:56:43.208Z,100645.94
2019-01-18T11:57:47.448Z,100647.25
2019-01-18T11:58:51.352Z,100639.69
2019-01-18T11:59:55.456Z,100645.48
2019-01-18T12:00:59.705Z,100642.77
2019-01-18T12:02:03.938Z,100640.04
2019-01-18T12:03:07.923Z,100640.47
2019-01-18T12:04:11.757Z,100646.70
2019-01-18T12:05:15.735Z,100637.65
2019-01-18T12:06:19.903Z,100642.97
2019-01-18T12:07:23.815Z,100641.59
2019-01-18T12:08:27.809Z,100640.20
2019-01-18T12:09:31.785Z,100637.88
2019-01-18T12:10:35.766Z,100638.31
2019-01-18T12:11:39.681Z,100635.49
2019-01-18T12:12:43.661Z,100644.02
2019-01-18T12:13:47.943Z,100639.12
2019-01-18T12:14:51.778Z,100640.12
2019-01-18T12:15:55.689Z,100639.70